createdAt,value
2018-12-01T06:54:30.917Z,6.80
2018-12-01T06:57:03.657Z,6.87
2018-12-01T06:59:36.339Z,6.70
2018-12-01T07:02:09.008Z,6.23
2018-12-01T07:04:41.456Z,7.57
2018-12-01T07:07:14.200Z,6.57
2018-12-01T07:09:46.881Z,7.10
2018-12-01T07:12:19.309Z,7.07
2018-12-01T07:14:51.731Z,7.10
2018-12-01T07:17:24.149Z,7.50
2018-12-01T07:19:56.833Z,7.10
2018-12-01T07:22:29.237Z,7.30
2018-12-01T07:25:01.923Z,6.97
2018-12-01T07:27:35.084Z,6.73
2018-12-01T07:30:10.004Z,6.93
2018-12-01T07:32:43.509Z,7.33
2018-12-01T07:35:15.927Z,6.23
2018-12-01T07:37:48.591Z,5.83
2018-12-01T07:40:21.347Z,6.43
2018-12-01T07:42:53.744Z,6.50
2018-12-01T07:45:26.151Z,7.10
2018-12-01T07:47:58.564Z,6.30
2018-12-01T07:50:31.250Z,6.07
2018-12-01T07:53:03.949Z,5.97
2018-12-01T07:55:36.384Z,6.07
2018-12-01T07:58:09.067Z,7.00
2018-12-01T08:00:41.760Z,5.87
2018-12-01T08:03:14.414Z,6.53
2018-12-01T08:05:46.868Z,7.17
2018-12-01T08:08:19.300Z,6.30
2018-12-01T08:10:51.746Z,6.97
2018-12-01T08:13:24.672Z,6.83
2018-12-01T08:15:57.324Z,6.97
2018-12-01T08:18:29.787Z,7.03
2018-12-01T08:21:02.228Z,7.87
2018-12-01T08:23:34.672Z,6.17
2018-12-01T08:26:07.236Z,6.60
2018-12-01T08:28:39.900Z,7.53
2018-12-01T08:31:12.527Z,6.63
2018-12-01T08:33:45.261Z,6.27
2018-12-01T08:36:17.709Z,6.63
2018-12-01T08:38:50.396Z,6.40
2018-12-01T08:41:22.848Z,6.93
2018-12-01T08:43:55.291Z,7.10
2018-12-01T08:46:27.717Z,6.20
2018-12-01T08:49:00.217Z,6.90
2018-12-01T08:51:32.964Z,6.30
2018-12-01T08:54:05.641Z,6.80
2018-12-01T08:56:38.040Z,6.53
2018-12-01T08:59:10.704Z,6.50
2018-12-01T09:01:43.542Z,6.23
2018-12-01T09:04:16.285Z,6.63
2018-12-01T09:06:48.672Z,6.60
2018-12-01T09:09:21.072Z,6.60
2018-12-01T09:11:53.717Z,7.27
2018-12-01T09:14:26.140Z,7.10
2018-12-01T09:16:58.641Z,6.83
2018-12-01T09:19:31.075Z,6.67
2018-12-01T09:22:03.510Z,7.13
2018-12-01T09:24:36.180Z,7.10
2018-12-01T09:27:08.584Z,7.10
2018-12-01T09:29:40.997Z,6.83
2018-12-01T09:32:13.411Z,6.53
2018-12-01T09:34:46.084Z,7.83
2018-12-01T09:37:18.484Z,7.50
2018-12-01T09:39:50.965Z,9.00
2018-12-01T09:42:24.856Z,8.53
2018-12-01T09:44:56.361Z,7.83
2018-12-01T09:47:28.761Z,7.00
2018-12-01T09:50:01.173Z,7.20
2018-12-01T09:52:33.876Z,7.23
2018-12-01T09:55:13.487Z,7.23
2018-12-01T09:57:46.291Z,7.13
2018-12-01T10:00:21.344Z,7.70
2018-12-01T10:02:54.167Z,7.73
2018-12-01T10:05:26.917Z,7.53
2018-12-01T10:07:59.368Z,7.67
2018-12-01T10:10:32.053Z,7.40
2018-12-01T10:13:04.580Z,6.63
2018-12-01T10:15:37.339Z,7.47
2018-12-01T10:18:09.748Z,7.47
2018-12-01T10:20:42.239Z,7.17
2018-12-01T10:23:14.650Z,7.77
2018-12-01T10:25:47.100Z,7.13
2018-12-01T10:28:19.508Z,6.90
2018-12-01T10:30:52.001Z,7.07
2018-12-01T10:33:24.431Z,6.73
2018-12-01T10:35:56.853Z,6.23
2018-12-01T10:38:29.611Z,5.43
2018-12-01T10:41:02.031Z,5.53
2018-12-01T10:43:34.436Z,5.47
2018-12-01T10:46:06.860Z,5.10
2018-12-01T10:48:39.295Z,4.33
2018-12-01T10:51:11.721Z,4.13
2018-12-01T10:53:44.143Z,3.77
2018-12-01T10:56:16.780Z,3.93
2018-12-01T10:58:49.465Z,3.80
2018-12-01T11:01:22.144Z,3.73
2018-12-01T11:03:54.565Z,3.83
2018-12-01T11:06:27.100Z,3.80
2018-12-01T11:08:59.610Z,3.70
2018-12-01T11:11:32.277Z,3.33
2018-12-01T11:14:04.667Z,2.73
2018-12-01T11:16:37.101Z,3.27
2018-12-01T11:19:09.517Z,3.33
2018-12-01T11:21:42.004Z,3.60
2018-12-01T11:24:14.395Z,3.20
2018-12-01T11:26:46.809Z,3.93
2018-12-01T11:29:19.218Z,3.80
2018-12-01T11:31:51.645Z,3.90
2018-12-01T11:37:03.004Z,3.00
2018-12-01T11:39:35.761Z,3.00
2018-12-01T11:42:08.723Z,3.57
2018-12-01T11:44:41.484Z,3.23
2018-12-01T11:47:13.968Z,3.40
2018-12-01T11:49:46.404Z,3.20
2018-12-01T11:52:18.900Z,3.17
2018-12-01T11:54:51.303Z,3.40
2018-12-01T11:57:23.976Z,3.30
2018-12-01T11:59:56.656Z,3.13
2018-12-01T12:02:29.743Z,2.80
2018-12-01T12:05:02.164Z,2.97
2018-12-01T12:08:25.214Z,3.47
2018-12-01T12:10:57.619Z,3.07
2018-12-01T12:13:30.016Z,2.53
2018-12-01T12:16:02.703Z,2.80
2018-12-01T12:18:35.392Z,2.93
2018-12-01T12:21:07.817Z,2.90
2018-12-01T12:23:40.380Z,2.67
2018-12-01T12:26:13.887Z,2.80
2018-12-01T12:28:46.299Z,3.47
2018-12-01T12:31:18.939Z,2.80
2018-12-01T12:33:51.405Z,2.53
2018-12-01T12:36:24.100Z,2.03
2018-12-01T12:38:56.536Z,2.07
2018-12-01T12:41:29.341Z,2.27
2018-12-01T12:44:01.743Z,2.30
2018-12-01T12:46:34.740Z,2.30
2018-12-01T12:49:07.180Z,2.00
2018-12-01T12:51:39.590Z,2.80
2018-12-01T12:54:12.019Z,2.43
2018-12-01T12:56:44.715Z,2.40
2018-12-01T12:59:17.396Z,2.50
2018-12-01T13:01:50.084Z,2.10
2018-12-01T13:04:22.470Z,2.30
2018-12-01T13:06:55.148Z,2.43
2018-12-01T13:09:27.829Z,2.20
2018-12-01T13:12:00.290Z,2.53
2018-12-01T13:14:32.777Z,1.90
2018-12-01T13:17:05.249Z,2.37
2018-12-01T13:19:37.678Z,2.37
2018-12-01T13:22:10.380Z,2.60
2018-12-01T13:24:42.772Z,2.60
2018-12-01T13:27:15.439Z,2.10
2018-12-01T13:29:47.868Z,1.93
2018-12-01T13:32:20.302Z,2.57
2018-12-01T13:34:52.745Z,2.40
2018-12-01T13:37:25.445Z,2.27
2018-12-01T13:39:57.969Z,2.40
2018-12-01T13:42:30.719Z,2.37
2018-12-01T13:45:03.675Z,2.30
2018-12-01T13:47:36.103Z,2.53
2018-12-01T13:50:14.847Z,2.70
2018-12-01T13:52:51.976Z,2.50
2018-12-01T13:55:24.401Z,2.80
2018-12-01T13:57:56.840Z,2.60
2018-12-01T14:00:29.264Z,2.43
2018-12-01T14:03:02.376Z,2.67
2018-12-01T14:05:35.045Z,2.63
2018-12-01T14:08:08.045Z,3.37
2018-12-01T14:10:46.376Z,2.70
2018-12-01T14:13:18.800Z,2.73
2018-12-01T14:15:51.373Z,2.87
2018-12-01T14:18:23.927Z,2.40
2018-12-01T14:20:57.363Z,2.30
2018-12-01T14:23:29.852Z,2.30
2018-12-01T14:26:02.309Z,3.00
2018-12-01T14:28:34.747Z,2.70
2018-12-01T14:31:07.196Z,2.40
2018-12-01T14:33:39.661Z,2.33
2018-12-01T14:36:12.125Z,2.43
2018-12-01T14:38:44.572Z,2.53
2018-12-01T14:41:17.060Z,2.20
2018-12-01T14:43:50.048Z,2.50
2018-12-01T14:46:23.773Z,2.40
2018-12-01T14:48:54.972Z,2.10
2018-12-01T14:51:28.394Z,2.57
2018-12-01T14:54:00.808Z,2.37
2018-12-01T14:56:33.212Z,2.63
2018-12-01T14:59:05.632Z,2.40
2018-12-01T15:01:38.072Z,2.57
2018-12-01T15:04:10.487Z,2.57
2018-12-01T15:06:42.889Z,2.50
2018-12-01T15:09:15.298Z,2.70
2018-12-01T15:11:47.938Z,3.00
2018-12-01T15:14:20.639Z,2.43
2018-12-01T15:16:53.044Z,2.50
2018-12-01T15:19:25.453Z,3.23
2018-12-01T15:21:58.108Z,2.83
2018-12-01T15:24:30.552Z,2.93
2018-12-01T15:27:03.440Z,2.50
2018-12-01T15:29:35.850Z,2.87
2018-12-01T15:32:08.588Z,3.50
2018-12-01T15:34:40.996Z,3.53
2018-12-01T15:37:13.400Z,4.00
2018-12-01T15:39:45.825Z,4.07
2018-12-01T15:42:18.228Z,2.93
2018-12-01T15:44:50.648Z,3.20
2018-12-01T15:47:23.064Z,3.30
2018-12-01T15:49:55.776Z,3.30
2018-12-01T15:52:28.788Z,3.30
2018-12-01T15:55:01.280Z,3.43
2018-12-01T15:57:33.684Z,3.23
2018-12-01T16:00:24.922Z,3.53
2018-12-01T16:02:57.664Z,3.57
2018-12-01T16:05:30.056Z,3.73
2018-12-01T16:08:02.505Z,3.83
2018-12-01T16:10:34.927Z,3.80
2018-12-01T16:13:11.116Z,4.17
2018-12-01T16:15:47.189Z,3.80
2018-12-01T16:18:20.253Z,3.47
2018-12-01T16:20:52.652Z,3.73
2018-12-01T16:23:25.139Z,3.63
2018-12-01T16:25:57.538Z,3.60
2018-12-01T16:28:29.962Z,3.60
2018-12-01T16:31:02.366Z,4.03
2018-12-01T16:33:35.299Z,3.63
2018-12-01T16:36:07.729Z,3.87
2018-12-01T16:38:40.157Z,3.70
2018-12-01T16:41:19.543Z,3.57
2018-12-01T16:43:51.960Z,3.53
2018-12-01T16:46:24.379Z,3.10
2018-12-01T16:48:56.797Z,3.97
2018-12-01T16:51:29.197Z,2.97
2018-12-01T16:54:01.655Z,3.43
2018-12-01T16:56:34.087Z,3.47
2018-12-01T16:59:06.508Z,3.17
2018-12-01T17:01:38.924Z,3.97
2018-12-01T17:04:11.356Z,3.53
2018-12-01T17:06:44.098Z,6.07
2018-12-01T17:09:16.543Z,4.20
2018-12-01T17:11:48.973Z,3.93
2018-12-01T17:14:21.392Z,5.80
2018-12-01T17:16:53.870Z,3.93
2018-12-01T17:19:32.977Z,3.47
2018-12-01T17:22:05.680Z,3.53
2018-12-01T17:24:38.104Z,4.23
2018-12-01T17:27:10.516Z,4.03
2018-12-01T17:29:42.956Z,3.87
2018-12-01T17:32:15.617Z,4.23
2018-12-01T17:34:48.044Z,4.07
2018-12-01T17:37:20.720Z,4.10
2018-12-01T17:39:53.195Z,4.03
2018-12-01T17:42:25.919Z,3.60
2018-12-01T17:44:58.552Z,4.13
2018-12-01T17:47:31.281Z,6.00
2018-12-01T17:50:09.248Z,12.90
2018-12-01T17:52:44.547Z,9.87
2018-12-01T17:55:17.385Z,5.37
2018-12-01T17:57:50.465Z,3.77
2018-12-01T18:00:24.806Z,3.93
2018-12-01T18:02:58.823Z,4.60
2018-12-01T18:05:38.020Z,4.30
2018-12-01T18:08:12.222Z,4.60
2018-12-01T18:10:45.840Z,4.30
2018-12-01T18:13:18.332Z,3.70
2018-12-01T18:15:50.760Z,3.67
2018-12-01T18:18:23.163Z,3.77
2018-12-01T18:20:55.625Z,3.97
2018-12-01T18:23:28.020Z,3.67
2018-12-01T18:26:00.472Z,3.70
2018-12-01T18:28:36.663Z,3.70
2018-12-01T18:31:12.516Z,3.47
2018-12-01T18:33:46.892Z,3.70
2018-12-01T18:36:19.324Z,3.70
2018-12-01T18:38:52.372Z,3.80
2018-12-01T18:41:24.803Z,3.23
2018-12-01T18:43:57.237Z,3.67
2018-12-01T18:46:29.692Z,3.53
2018-12-01T18:49:02.104Z,3.70
2018-12-01T18:51:34.848Z,3.77
2018-12-01T18:54:07.280Z,3.83
2018-12-01T18:56:39.685Z,4.07
2018-12-01T18:59:12.701Z,3.50
2018-12-01T19:01:46.887Z,3.60
2018-12-01T19:04:19.322Z,3.50
2018-12-01T19:06:51.724Z,3.80
2018-12-01T19:09:24.119Z,3.67
2018-12-01T19:11:56.516Z,4.07
2018-12-01T19:14:29.153Z,3.60
2018-12-01T19:17:01.852Z,3.00
2018-12-01T19:19:34.264Z,4.30
2018-12-01T19:22:06.672Z,3.60
2018-12-01T19:24:39.099Z,3.83
2018-12-01T19:27:17.607Z,3.50
2018-12-01T19:29:50.274Z,3.67
2018-12-01T19:32:22.671Z,3.80
2018-12-01T19:34:55.632Z,3.40
2018-12-01T19:37:28.267Z,3.40
2018-12-01T19:40:00.681Z,3.53
2018-12-01T19:42:33.072Z,3.57
2018-12-01T19:45:05.528Z,3.30
2018-12-01T19:47:37.916Z,3.37
2018-12-01T19:50:16.659Z,3.67
2018-12-01T19:52:49.100Z,3.30
2018-12-01T19:55:22.915Z,3.87
2018-12-01T19:57:55.347Z,3.90
2018-12-01T20:00:28.832Z,3.30
2018-12-01T20:03:02.943Z,3.30
2018-12-01T20:05:35.357Z,4.50
2018-12-01T20:08:08.292Z,3.23
2018-12-01T20:10:43.540Z,3.53
2018-12-01T20:13:23.505Z,3.03
2018-12-01T20:16:32.044Z,3.47
2018-12-01T20:19:05.496Z,3.43
2018-12-01T20:21:38.227Z,3.47
2018-12-01T20:24:10.620Z,3.47
2018-12-01T20:26:43.023Z,2.70
2018-12-01T20:29:15.734Z,2.90
2018-12-01T20:31:48.161Z,2.33
2018-12-01T20:34:20.538Z,2.10
2018-12-01T20:36:58.978Z,1.83
2018-12-01T20:39:33.784Z,1.70
2018-12-01T20:42:06.181Z,2.30
2018-12-01T20:44:38.566Z,2.50
2018-12-01T20:47:10.972Z,2.47
2018-12-01T20:49:43.698Z,1.90
2018-12-01T20:52:16.092Z,1.70
2018-12-01T20:54:48.508Z,1.70
2018-12-01T20:57:24.650Z,2.33
2018-12-01T20:59:57.824Z,1.87
2018-12-01T21:02:30.500Z,2.07
2018-12-01T21:05:03.439Z,2.17
2018-12-01T21:07:36.204Z,2.30
2018-12-01T21:10:15.695Z,1.80
2018-12-01T21:12:48.135Z,1.93
2018-12-01T21:15:20.667Z,1.87
2018-12-01T21:17:53.072Z,1.80
2018-12-01T21:20:25.724Z,2.00
2018-12-01T21:22:58.266Z,2.17
2018-12-01T21:25:30.751Z,2.00
2018-12-01T21:28:03.438Z,2.10
2018-12-01T21:30:36.467Z,2.03
2018-12-01T21:33:11.582Z,1.87
2018-12-01T21:35:43.987Z,2.13
2018-12-01T21:38:16.811Z,2.53
2018-12-01T21:40:49.289Z,2.10
2018-12-01T21:43:21.963Z,2.20
2018-12-01T21:45:54.356Z,2.60
2018-12-01T21:48:26.794Z,2.53
2018-12-01T21:50:59.204Z,2.10
2018-12-01T21:53:31.623Z,2.20
2018-12-01T21:56:04.543Z,2.63
2018-12-01T21:58:37.215Z,1.97
2018-12-01T22:01:09.628Z,2.90
2018-12-01T22:03:42.046Z,3.53
2018-12-01T22:06:14.749Z,2.50
2018-12-01T22:08:47.166Z,2.70
2018-12-01T22:11:19.555Z,2.17
2018-12-01T22:13:52.021Z,2.17
2018-12-01T22:16:25.005Z,1.90
2018-12-01T22:18:57.457Z,2.23
2018-12-01T22:21:30.200Z,2.23
2018-12-01T22:24:02.951Z,1.83
2018-12-01T22:26:35.407Z,1.90
2018-12-01T22:29:07.892Z,2.20
